sensor_id;sensor_type;location;lat;lon;timestamp;P1;durP1;ratioP1;P2;durP2;ratioP2
6850;SDS011;3464;42.728;23.296;2022-07-29T00:01:51;20.73;;;13.20;;
6850;SDS011;3464;42.728;23.296;2022-07-29T00:04:40;19.70;;;13.10;;
6850;SDS011;3464;42.728;23.296;2022-07-29T00:07:30;22.20;;;12.90;;
6850;SDS011;3464;42.728;23.296;2022-07-29T00:10:19;21.57;;;13.03;;
6850;SDS011;3464;42.728;23.296;2022-07-29T00:13:09;18.60;;;12.20;;
6850;SDS011;3464;42.728;23.296;2022-07-29T00:15:59;20.83;;;14.23;;
6850;SDS011;3464;42.728;23.296;2022-07-29T00:18:48;22.27;;;15.23;;
6850;SDS011;3464;42.728;23.296;2022-07-29T00:21:38;25.10;;;15.90;;
6850;SDS011;3464;42.728;23.296;2022-07-29T00:24:27;25.57;;;16.77;;
6850;SDS011;3464;42.728;23.296;2022-07-29T00:27:17;25.03;;;17.13;;
6850;SDS011;3464;42.728;23.296;2022-07-29T00:30:05;26.50;;;17.37;;
6850;SDS011;3464;42.728;23.296;2022-07-29T00:32:54;27.33;;;18.00;;
6850;SDS011;3464;42.728;23.296;2022-07-29T00:35:44;25.93;;;17.63;;
6850;SDS011;3464;42.728;23.296;2022-07-29T00:38:33;31.03;;;19.60;;
6850;SDS011;3464;42.728;23.296;2022-07-29T00:41:23;32.47;;;20.90;;
6850;SDS011;3464;42.728;23.296;2022-07-29T00:44:12;28.33;;;19.10;;
6850;SDS011;3464;42.728;23.296;2022-07-29T00:47:02;29.33;;;18.13;;
6850;SDS011;3464;42.728;23.296;2022-07-29T00:49:52;28.20;;;18.40;;
6850;SDS011;3464;42.728;23.296;2022-07-29T00:52:41;30.77;;;18.37;;
6850;SDS011;3464;42.728;23.296;2022-07-29T00:55:31;27.73;;;18.83;;
6850;SDS011;3464;42.728;23.296;2022-07-29T00:58:20;30.63;;;17.33;;
6850;SDS011;3464;42.728;23.296;2022-07-29T01:01:09;26.03;;;16.90;;
6850;SDS011;3464;42.728;23.296;2022-07-29T01:03:58;25.90;;;17.67;;
6850;SDS011;3464;42.728;23.296;2022-07-29T01:06:49;30.40;;;19.10;;
6850;SDS011;3464;42.728;23.296;2022-07-29T01:09:39;25.57;;;17.00;;
6850;SDS011;3464;42.728;23.296;2022-07-29T01:12:29;29.53;;;17.80;;
6850;SDS011;3464;42.728;23.296;2022-07-29T01:15:19;27.10;;;17.60;;
6850;SDS011;3464;42.728;23.296;2022-07-29T01:18:11;25.97;;;17.50;;
6850;SDS011;3464;42.728;23.296;2022-07-29T01:27:21;26.30;;;16.27;;
6850;SDS011;3464;42.728;23.296;2022-07-29T01:30:06;27.40;;;18.47;;
6850;SDS011;3464;42.728;23.296;2022-07-29T01:32:58;28.40;;;17.43;;
6850;SDS011;3464;42.728;23.296;2022-07-29T01:35:46;26.30;;;17.00;;
6850;SDS011;3464;42.728;23.296;2022-07-29T01:38:35;27.00;;;17.60;;
6850;SDS011;3464;42.728;23.296;2022-07-29T01:41:27;30.27;;;18.80;;
6850;SDS011;3464;42.728;23.296;2022-07-29T01:44:18;27.17;;;17.80;;
6850;SDS011;3464;42.728;23.296;2022-07-29T01:47:11;25.67;;;18.50;;
6850;SDS011;3464;42.728;23.296;2022-07-29T01:49:59;29.27;;;19.20;;
6850;SDS011;3464;42.728;23.296;2022-07-29T01:52:54;31.63;;;18.03;;
6850;SDS011;3464;42.728;23.296;2022-07-29T01:55:45;30.50;;;19.60;;
6850;SDS011;3464;42.728;23.296;2022-07-29T01:58:34;27.60;;;18.90;;
6850;SDS011;3464;42.728;23.296;2022-07-29T02:01:24;26.87;;;18.27;;
6850;SDS011;3464;42.728;23.296;2022-07-29T02:04:14;26.67;;;18.40;;
6850;SDS011;3464;42.728;23.296;2022-07-29T02:07:03;25.00;;;18.30;;
6850;SDS011;3464;42.728;23.296;2022-07-29T02:09:51;30.83;;;19.67;;
6850;SDS011;3464;42.728;23.296;2022-07-29T02:12:42;30.23;;;20.10;;
6850;SDS011;3464;42.728;23.296;2022-07-29T02:15:32;33.47;;;20.90;;
6850;SDS011;3464;42.728;23.296;2022-07-29T02:18:20;31.77;;;21.80;;
6850;SDS011;3464;42.728;23.296;2022-07-29T02:21:09;30.60;;;21.10;;
6850;SDS011;3464;42.728;23.296;2022-07-29T02:23:58;31.30;;;19.63;;
6850;SDS011;3464;42.728;23.296;2022-07-29T02:26:46;28.70;;;20.03;;
6850;SDS011;3464;42.728;23.296;2022-07-29T02:29:36;31.93;;;20.30;;
6850;SDS011;3464;42.728;23.296;2022-07-29T02:32:26;34.93;;;21.03;;
6850;SDS011;3464;42.728;23.296;2022-07-29T02:35:16;30.57;;;19.77;;
6850;SDS011;3464;42.728;23.296;2022-07-29T02:38:05;30.37;;;19.70;;
6850;SDS011;3464;42.728;23.296;2022-07-29T02:41:03;28.37;;;19.67;;
6850;SDS011;3464;42.728;23.296;2022-07-29T02:43:55;29.73;;;20.17;;
6850;SDS011;3464;42.728;23.296;2022-07-29T02:46:53;28.13;;;19.43;;
6850;SDS011;3464;42.728;23.296;2022-07-29T02:49:47;35.50;;;20.57;;
6850;SDS011;3464;42.728;23.296;2022-07-29T02:52:52;30.50;;;20.37;;
6850;SDS011;3464;42.728;23.296;2022-07-29T02:55:40;35.33;;;20.60;;
6850;SDS011;3464;42.728;23.296;2022-07-29T02:58:30;34.37;;;22.17;;
6850;SDS011;3464;42.728;23.296;2022-07-29T03:01:22;39.53;;;22.60;;
6850;SDS011;3464;42.728;23.296;2022-07-29T03:04:09;31.50;;;21.80;;
6850;SDS011;3464;42.728;23.296;2022-07-29T03:06:59;33.10;;;23.93;;
6850;SDS011;3464;42.728;23.296;2022-07-29T03:09:48;42.27;;;26.83;;
6850;SDS011;3464;42.728;23.296;2022-07-29T03:12:38;35.70;;;24.80;;
6850;SDS011;3464;42.728;23.296;2022-07-29T03:15:27;35.83;;;25.77;;
6850;SDS011;3464;42.728;23.296;2022-07-29T03:18:17;41.03;;;29.47;;
6850;SDS011;3464;42.728;23.296;2022-07-29T03:21:06;36.03;;;26.73;;
6850;SDS011;3464;42.728;23.296;2022-07-29T03:23:55;38.00;;;29.63;;
6850;SDS011;3464;42.728;23.296;2022-07-29T03:26:45;38.10;;;28.40;;
6850;SDS011;3464;42.728;23.296;2022-07-29T03:29:35;33.10;;;22.97;;
6850;SDS011;3464;42.728;23.296;2022-07-29T03:32:24;34.30;;;25.43;;
6850;SDS011;3464;42.728;23.296;2022-07-29T03:35:14;31.70;;;24.53;;
6850;SDS011;3464;42.728;23.296;2022-07-29T03:38:04;38.07;;;26.37;;
6850;SDS011;3464;42.728;23.296;2022-07-29T03:40:55;32.10;;;19.40;;
6850;SDS011;3464;42.728;23.296;2022-07-29T03:43:44;28.23;;;20.40;;
6850;SDS011;3464;42.728;23.296;2022-07-29T03:46:34;34.53;;;20.20;;
6850;SDS011;3464;42.728;23.296;2022-07-29T03:49:24;31.00;;;18.93;;
6850;SDS011;3464;42.728;23.296;2022-07-29T03:52:13;30.73;;;17.47;;
6850;SDS011;3464;42.728;23.296;2022-07-29T03:55:03;27.50;;;18.47;;
6850;SDS011;3464;42.728;23.296;2022-07-29T03:57:53;30.00;;;19.20;;
6850;SDS011;3464;42.728;23.296;2022-07-29T04:00:42;30.43;;;19.80;;
6850;SDS011;3464;42.728;23.296;2022-07-29T04:03:30;27.90;;;18.13;;
6850;SDS011;3464;42.728;23.296;2022-07-29T04:06:20;30.63;;;17.83;;
6850;SDS011;3464;42.728;23.296;2022-07-29T04:09:10;24.60;;;17.17;;
6850;SDS011;3464;42.728;23.296;2022-07-29T04:11:59;24.40;;;15.90;;
6850;SDS011;3464;42.728;23.296;2022-07-29T04:14:49;25.40;;;16.10;;
6850;SDS011;3464;42.728;23.296;2022-07-29T04:17:38;26.43;;;15.10;;
6850;SDS011;3464;42.728;23.296;2022-07-29T04:20:28;25.30;;;15.53;;
6850;SDS011;3464;42.728;23.296;2022-07-29T04:23:18;25.77;;;14.97;;
6850;SDS011;3464;42.728;23.296;2022-07-29T04:26:09;23.30;;;14.03;;
6850;SDS011;3464;42.728;23.296;2022-07-29T04:28:58;26.90;;;13.00;;
6850;SDS011;3464;42.728;23.296;2022-07-29T04:31:47;23.20;;;14.50;;
6850;SDS011;3464;42.728;23.296;2022-07-29T04:34:37;29.97;;;14.80;;
6850;SDS011;3464;42.728;23.296;2022-07-29T04:37:26;21.97;;;14.30;;
6850;SDS011;3464;42.728;23.296;2022-07-29T04:40:15;26.10;;;14.00;;
6850;SDS011;3464;42.728;23.296;2022-07-29T04:43:04;26.27;;;14.23;;
6850;SDS011;3464;42.728;23.296;2022-07-29T04:45:54;26.43;;;14.37;;
6850;SDS011;3464;42.728;23.296;2022-07-29T04:48:45;27.73;;;15.23;;
6850;SDS011;3464;42.728;23.296;2022-07-29T04:51:34;24.07;;;15.03;;
6850;SDS011;3464;42.728;23.296;2022-07-29T04:54:24;25.57;;;16.10;;
6850;SDS011;3464;42.728;23.296;2022-07-29T04:57:14;29.70;;;15.27;;
6850;SDS011;3464;42.728;23.296;2022-07-29T05:00:05;24.77;;;14.07;;
6850;SDS011;3464;42.728;23.296;2022-07-29T05:02:54;27.87;;;15.50;;
6850;SDS011;3464;42.728;23.296;2022-07-29T05:05:44;30.03;;;14.63;;
6850;SDS011;3464;42.728;23.296;2022-07-29T05:08:33;26.50;;;14.30;;
6850;SDS011;3464;42.728;23.296;2022-07-29T05:11:23;22.97;;;13.87;;
6850;SDS011;3464;42.728;23.296;2022-07-29T05:14:12;21.93;;;13.60;;
6850;SDS011;3464;42.728;23.296;2022-07-29T05:17:02;27.60;;;15.40;;
6850;SDS011;3464;42.728;23.296;2022-07-29T05:19:51;24.53;;;15.33;;
6850;SDS011;3464;42.728;23.296;2022-07-29T05:22:41;25.53;;;13.30;;
6850;SDS011;3464;42.728;23.296;2022-07-29T05:25:30;25.57;;;15.87;;
6850;SDS011;3464;42.728;23.296;2022-07-29T05:28:20;29.60;;;15.50;;
6850;SDS011;3464;42.728;23.296;2022-07-29T05:31:10;24.70;;;15.27;;
6850;SDS011;3464;42.728;23.296;2022-07-29T05:34:00;29.90;;;16.40;;
6850;SDS011;3464;42.728;23.296;2022-07-29T05:36:48;26.50;;;16.33;;
6850;SDS011;3464;42.728;23.296;2022-07-29T05:39:38;28.70;;;17.17;;
6850;SDS011;3464;42.728;23.296;2022-07-29T05:42:28;25.23;;;15.37;;
6850;SDS011;3464;42.728;23.296;2022-07-29T05:45:17;29.60;;;17.93;;
6850;SDS011;3464;42.728;23.296;2022-07-29T05:48:07;27.30;;;16.70;;
6850;SDS011;3464;42.728;23.296;2022-07-29T05:50:56;26.63;;;17.20;;
6850;SDS011;3464;42.728;23.296;2022-07-29T05:53:46;26.93;;;16.90;;
6850;SDS011;3464;42.728;23.296;2022-07-29T05:56:35;27.50;;;16.50;;
6850;SDS011;3464;42.728;23.296;2022-07-29T05:59:25;24.73;;;16.43;;
6850;SDS011;3464;42.728;23.296;2022-07-29T06:02:16;29.63;;;15.50;;
6850;SDS011;3464;42.728;23.296;2022-07-29T06:05:06;27.70;;;14.30;;
6850;SDS011;3464;42.728;23.296;2022-07-29T06:07:55;22.37;;;12.03;;
6850;SDS011;3464;42.728;23.296;2022-07-29T06:10:45;18.03;;;7.10;;
6850;SDS011;3464;42.728;23.296;2022-07-29T06:13:34;15.70;;;6.10;;
6850;SDS011;3464;42.728;23.296;2022-07-29T06:16:24;15.77;;;7.60;;
6850;SDS011;3464;42.728;23.296;2022-07-29T06:19:14;15.03;;;7.60;;
6850;SDS011;3464;42.728;23.296;2022-07-29T06:22:02;16.00;;;7.10;;
6850;SDS011;3464;42.728;23.296;2022-07-29T06:24:51;17.97;;;7.07;;
6850;SDS011;3464;42.728;23.296;2022-07-29T06:27:41;17.70;;;8.17;;
6850;SDS011;3464;42.728;23.296;2022-07-29T06:30:30;15.00;;;6.50;;
6850;SDS011;3464;42.728;23.296;2022-07-29T06:33:20;13.90;;;6.60;;
6850;SDS011;3464;42.728;23.296;2022-07-29T06:36:10;16.63;;;5.23;;
6850;SDS011;3464;42.728;23.296;2022-07-29T06:38:59;20.30;;;6.33;;
6850;SDS011;3464;42.728;23.296;2022-07-29T06:41:49;20.53;;;6.20;;
6850;SDS011;3464;42.728;23.296;2022-07-29T06:44:38;15.27;;;4.90;;
6850;SDS011;3464;42.728;23.296;2022-07-29T06:47:28;14.03;;;4.87;;
6850;SDS011;3464;42.728;23.296;2022-07-29T06:50:17;13.27;;;4.70;;
6850;SDS011;3464;42.728;23.296;2022-07-29T06:53:07;15.23;;;5.07;;
6850;SDS011;3464;42.728;23.296;2022-07-29T06:55:58;16.60;;;5.03;;
6850;SDS011;3464;42.728;23.296;2022-07-29T06:58:47;15.83;;;4.90;;
6850;SDS011;3464;42.728;23.296;2022-07-29T07:01:37;14.47;;;4.93;;
6850;SDS011;3464;42.728;23.296;2022-07-29T07:04:26;13.37;;;4.47;;
6850;SDS011;3464;42.728;23.296;2022-07-29T07:07:16;13.20;;;4.20;;
6850;SDS011;3464;42.728;23.296;2022-07-29T07:10:05;14.30;;;4.67;;
6850;SDS011;3464;42.728;23.296;2022-07-29T07:12:55;10.67;;;3.77;;
6850;SDS011;3464;42.728;23.296;2022-07-29T07:15:44;11.90;;;4.00;;
6850;SDS011;3464;42.728;23.296;2022-07-29T07:18:33;14.43;;;4.10;;
6850;SDS011;3464;42.728;23.296;2022-07-29T07:21:24;13.77;;;3.93;;
6850;SDS011;3464;42.728;23.296;2022-07-29T07:24:13;17.27;;;4.70;;
6850;SDS011;3464;42.728;23.296;2022-07-29T07:27:04;11.40;;;3.30;;
6850;SDS011;3464;42.728;23.296;2022-07-29T07:29:54;12.50;;;4.20;;
6850;SDS011;3464;42.728;23.296;2022-07-29T07:32:43;11.27;;;4.40;;
6850;SDS011;3464;42.728;23.296;2022-07-29T07:35:33;12.23;;;3.90;;
6850;SDS011;3464;42.728;23.296;2022-07-29T07:38:24;14.67;;;4.50;;
6850;SDS011;3464;42.728;23.296;2022-07-29T07:41:13;17.60;;;4.57;;
6850;SDS011;3464;42.728;23.296;2022-07-29T07:44:03;10.50;;;3.90;;
6850;SDS011;3464;42.728;23.296;2022-07-29T07:46:54;13.87;;;4.37;;
6850;SDS011;3464;42.728;23.296;2022-07-29T07:49:43;13.33;;;4.20;;
6850;SDS011;3464;42.728;23.296;2022-07-29T07:52:34;13.17;;;4.43;;
6850;SDS011;3464;42.728;23.296;2022-07-29T07:55:28;12.07;;;4.03;;
6850;SDS011;3464;42.728;23.296;2022-07-29T07:58:20;12.67;;;4.43;;
6850;SDS011;3464;42.728;23.296;2022-07-29T08:01:09;11.73;;;4.17;;
6850;SDS011;3464;42.728;23.296;2022-07-29T08:03:59;12.67;;;4.13;;
6850;SDS011;3464;42.728;23.296;2022-07-29T08:06:49;9.97;;;3.53;;
6850;SDS011;3464;42.728;23.296;2022-07-29T08:09:38;10.80;;;4.00;;
6850;SDS011;3464;42.728;23.296;2022-07-29T08:12:28;15.03;;;4.30;;
6850;SDS011;3464;42.728;23.296;2022-07-29T08:15:17;16.93;;;5.20;;
6850;SDS011;3464;42.728;23.296;2022-07-29T08:18:07;12.67;;;5.20;;
6850;SDS011;3464;42.728;23.296;2022-07-29T08:20:58;13.27;;;4.70;;
6850;SDS011;3464;42.728;23.296;2022-07-29T08:23:48;12.60;;;4.30;;
6850;SDS011;3464;42.728;23.296;2022-07-29T08:26:42;16.37;;;4.90;;
6850;SDS011;3464;42.728;23.296;2022-07-29T08:29:32;14.90;;;5.40;;
6850;SDS011;3464;42.728;23.296;2022-07-29T08:32:22;15.00;;;4.90;;
6850;SDS011;3464;42.728;23.296;2022-07-29T08:35:11;13.07;;;4.57;;
6850;SDS011;3464;42.728;23.296;2022-07-29T08:38:00;13.97;;;4.33;;
6850;SDS011;3464;42.728;23.296;2022-07-29T08:40:50;13.10;;;4.60;;
6850;SDS011;3464;42.728;23.296;2022-07-29T08:43:40;13.60;;;4.17;;
6850;SDS011;3464;42.728;23.296;2022-07-29T08:46:29;14.93;;;5.07;;
6850;SDS011;3464;42.728;23.296;2022-07-29T08:49:19;12.40;;;4.50;;
6850;SDS011;3464;42.728;23.296;2022-07-29T08:52:10;18.53;;;4.47;;
6850;SDS011;3464;42.728;23.296;2022-07-29T08:54:59;13.30;;;3.93;;
6850;SDS011;3464;42.728;23.296;2022-07-29T08:57:49;11.83;;;3.93;;
6850;SDS011;3464;42.728;23.296;2022-07-29T09:00:41;12.97;;;4.37;;
6850;SDS011;3464;42.728;23.296;2022-07-29T09:03:30;12.27;;;4.87;;
6850;SDS011;3464;42.728;23.296;2022-07-29T09:06:20;11.57;;;4.30;;
6850;SDS011;3464;42.728;23.296;2022-07-29T09:09:10;15.50;;;4.43;;
6850;SDS011;3464;42.728;23.296;2022-07-29T09:11:59;13.60;;;4.20;;
6850;SDS011;3464;42.728;23.296;2022-07-29T09:14:48;11.80;;;3.90;;
6850;SDS011;3464;42.728;23.296;2022-07-29T09:17:43;11.80;;;4.07;;
6850;SDS011;3464;42.728;23.296;2022-07-29T09:20:31;11.10;;;3.83;;
6850;SDS011;3464;42.728;23.296;2022-07-29T09:23:26;15.13;;;4.23;;
6850;SDS011;3464;42.728;23.296;2022-07-29T09:26:16;12.63;;;4.30;;
6850;SDS011;3464;42.728;23.296;2022-07-29T09:29:08;10.80;;;4.03;;
6850;SDS011;3464;42.728;23.296;2022-07-29T09:31:57;13.87;;;4.37;;
6850;SDS011;3464;42.728;23.296;2022-07-29T09:34:47;10.80;;;4.40;;
6850;SDS011;3464;42.728;23.296;2022-07-29T09:37:54;12.27;;;3.77;;
6850;SDS011;3464;42.728;23.296;2022-07-29T09:40:56;12.10;;;4.43;;
6850;SDS011;3464;42.728;23.296;2022-07-29T09:44:01;10.60;;;4.13;;
6850;SDS011;3464;42.728;23.296;2022-07-29T09:46:54;12.80;;;4.30;;
6850;SDS011;3464;42.728;23.296;2022-07-29T09:52:45;12.30;;;4.20;;
6850;SDS011;3464;42.728;23.296;2022-07-29T09:55:40;11.57;;;4.67;;
6850;SDS011;3464;42.728;23.296;2022-07-29T09:58:28;12.33;;;4.13;;
6850;SDS011;3464;42.728;23.296;2022-07-29T10:01:26;11.80;;;4.20;;
6850;SDS011;3464;42.728;23.296;2022-07-29T10:04:09;12.70;;;4.67;;
6850;SDS011;3464;42.728;23.296;2022-07-29T10:07:00;13.30;;;4.80;;
6850;SDS011;3464;42.728;23.296;2022-07-29T10:09:56;13.33;;;4.30;;
6850;SDS011;3464;42.728;23.296;2022-07-29T10:12:49;12.80;;;4.30;;
6850;SDS011;3464;42.728;23.296;2022-07-29T10:15:40;10.60;;;4.10;;
6850;SDS011;3464;42.728;23.296;2022-07-29T10:18:29;14.50;;;5.03;;
6850;SDS011;3464;42.728;23.296;2022-07-29T10:21:20;11.97;;;4.67;;
6850;SDS011;3464;42.728;23.296;2022-07-29T10:24:09;11.30;;;4.57;;
6850;SDS011;3464;42.728;23.296;2022-07-29T10:27:00;12.07;;;4.03;;
6850;SDS011;3464;42.728;23.296;2022-07-29T10:29:48;11.87;;;4.20;;
6850;SDS011;3464;42.728;23.296;2022-07-29T10:33:16;10.90;;;4.20;;
6850;SDS011;3464;42.728;23.296;2022-07-29T10:35:54;11.80;;;3.93;;
6850;SDS011;3464;42.728;23.296;2022-07-29T10:38:52;13.20;;;4.13;;
6850;SDS011;3464;42.728;23.296;2022-07-29T10:41:52;11.50;;;4.10;;
6850;SDS011;3464;42.728;23.296;2022-07-29T10:44:39;14.13;;;4.50;;
6850;SDS011;3464;42.728;23.296;2022-07-29T10:47:27;15.80;;;3.90;;
6850;SDS011;3464;42.728;23.296;2022-07-29T10:50:17;12.60;;;3.73;;
6850;SDS011;3464;42.728;23.296;2022-07-29T10:53:07;10.87;;;3.60;;
6850;SDS011;3464;42.728;23.296;2022-07-29T10:55:57;11.80;;;4.07;;
6850;SDS011;3464;42.728;23.296;2022-07-29T10:58:52;11.10;;;3.70;;
6850;SDS011;3464;42.728;23.296;2022-07-29T11:01:43;10.70;;;4.20;;
6850;SDS011;3464;42.728;23.296;2022-07-29T11:10:45;15.40;;;4.90;;
6850;SDS011;3464;42.728;23.296;2022-07-29T11:16:58;11.57;;;4.00;;
6850;SDS011;3464;42.728;23.296;2022-07-29T11:19:25;11.80;;;4.63;;
6850;SDS011;3464;42.728;23.296;2022-07-29T11:25:13;13.47;;;4.90;;
6850;SDS011;3464;42.728;23.296;2022-07-29T11:28:10;13.60;;;4.57;;
6850;SDS011;3464;42.728;23.296;2022-07-29T11:30:58;12.80;;;4.13;;
6850;SDS011;3464;42.728;23.296;2022-07-29T11:33:48;14.53;;;4.63;;
6850;SDS011;3464;42.728;23.296;2022-07-29T11:36:36;12.07;;;4.40;;
6850;SDS011;3464;42.728;23.296;2022-07-29T11:39:34;15.93;;;4.80;;
6850;SDS011;3464;42.728;23.296;2022-07-29T11:45:44;13.60;;;4.40;;
6850;SDS011;3464;42.728;23.296;2022-07-29T11:48:25;11.60;;;4.83;;
6850;SDS011;3464;42.728;23.296;2022-07-29T11:51:15;14.00;;;5.20;;
6850;SDS011;3464;42.728;23.296;2022-07-29T11:54:05;13.60;;;4.80;;
6850;SDS011;3464;42.728;23.296;2022-07-29T11:56:54;13.83;;;4.93;;
6850;SDS011;3464;42.728;23.296;2022-07-29T11:59:44;15.33;;;5.30;;
6850;SDS011;3464;42.728;23.296;2022-07-29T12:02:38;14.10;;;5.33;;
6850;SDS011;3464;42.728;23.296;2022-07-29T12:05:33;13.77;;;4.70;;
6850;SDS011;3464;42.728;23.296;2022-07-29T12:08:22;12.90;;;4.77;;
6850;SDS011;3464;42.728;23.296;2022-07-29T12:11:15;13.83;;;4.80;;
6850;SDS011;3464;42.728;23.296;2022-07-29T12:14:04;14.53;;;5.00;;
6850;SDS011;3464;42.728;23.296;2022-07-29T12:16:59;15.23;;;5.13;;
6850;SDS011;3464;42.728;23.296;2022-07-29T12:19:48;11.50;;;4.73;;
6850;SDS011;3464;42.728;23.296;2022-07-29T12:22:39;15.53;;;5.73;;
6850;SDS011;3464;42.728;23.296;2022-07-29T12:25:32;13.70;;;5.17;;
6850;SDS011;3464;42.728;23.296;2022-07-29T12:28:18;13.10;;;5.43;;
6850;SDS011;3464;42.728;23.296;2022-07-29T12:31:13;16.03;;;5.10;;
6850;SDS011;3464;42.728;23.296;2022-07-29T12:33:57;13.10;;;5.30;;
6850;SDS011;3464;42.728;23.296;2022-07-29T12:36:47;13.00;;;5.60;;
6850;SDS011;3464;42.728;23.296;2022-07-29T12:39:36;15.00;;;5.60;;
6850;SDS011;3464;42.728;23.296;2022-07-29T12:42:26;11.50;;;5.27;;
6850;SDS011;3464;42.728;23.296;2022-07-29T12:45:15;15.70;;;4.93;;
6850;SDS011;3464;42.728;23.296;2022-07-29T12:48:09;15.03;;;6.30;;
6850;SDS011;3464;42.728;23.296;2022-07-29T12:50:59;15.40;;;5.63;;
6850;SDS011;3464;42.728;23.296;2022-07-29T12:56:44;14.83;;;5.63;;
6850;SDS011;3464;42.728;23.296;2022-07-29T12:59:33;12.00;;;5.23;;
6850;SDS011;3464;42.728;23.296;2022-07-29T13:02:22;15.33;;;6.07;;
6850;SDS011;3464;42.728;23.296;2022-07-29T13:05:11;15.27;;;5.50;;
6850;SDS011;3464;42.728;23.296;2022-07-29T13:10:56;17.87;;;6.33;;
6850;SDS011;3464;42.728;23.296;2022-07-29T13:13:50;12.50;;;5.67;;
6850;SDS011;3464;42.728;23.296;2022-07-29T13:19:41;13.20;;;5.87;;
6850;SDS011;3464;42.728;23.296;2022-07-29T13:22:30;14.03;;;5.43;;
6850;SDS011;3464;42.728;23.296;2022-07-29T13:25:25;16.50;;;6.23;;
6850;SDS011;3464;42.728;23.296;2022-07-29T13:28:13;15.17;;;6.03;;
6850;SDS011;3464;42.728;23.296;2022-07-29T13:31:03;14.63;;;5.90;;
6850;SDS011;3464;42.728;23.296;2022-07-29T13:33:53;12.03;;;5.93;;
6850;SDS011;3464;42.728;23.296;2022-07-29T13:36:42;15.43;;;6.10;;
6850;SDS011;3464;42.728;23.296;2022-07-29T13:39:32;13.50;;;5.90;;
6850;SDS011;3464;42.728;23.296;2022-07-29T13:42:22;16.10;;;5.27;;
6850;SDS011;3464;42.728;23.296;2022-07-29T13:45:12;17.70;;;5.90;;
6850;SDS011;3464;42.728;23.296;2022-07-29T13:48:01;15.13;;;5.60;;
6850;SDS011;3464;42.728;23.296;2022-07-29T13:50:51;15.63;;;6.07;;
6850;SDS011;3464;42.728;23.296;2022-07-29T13:53:40;12.27;;;5.60;;
6850;SDS011;3464;42.728;23.296;2022-07-29T13:56:30;15.40;;;5.90;;
6850;SDS011;3464;42.728;23.296;2022-07-29T13:59:19;16.40;;;5.70;;
6850;SDS011;3464;42.728;23.296;2022-07-29T14:02:09;13.30;;;6.10;;
6850;SDS011;3464;42.728;23.296;2022-07-29T14:04:58;11.80;;;5.43;;
6850;SDS011;3464;42.728;23.296;2022-07-29T14:07:47;14.80;;;5.77;;
6850;SDS011;3464;42.728;23.296;2022-07-29T14:10:38;12.83;;;5.40;;
6850;SDS011;3464;42.728;23.296;2022-07-29T14:13:28;17.50;;;5.97;;
6850;SDS011;3464;42.728;23.296;2022-07-29T14:16:18;12.40;;;5.60;;
6850;SDS011;3464;42.728;23.296;2022-07-29T14:19:07;11.33;;;5.23;;
6850;SDS011;3464;42.728;23.296;2022-07-29T14:21:56;12.70;;;5.50;;
6850;SDS011;3464;42.728;23.296;2022-07-29T14:24:46;13.23;;;5.80;;
6850;SDS011;3464;42.728;23.296;2022-07-29T14:27:35;14.93;;;6.53;;
6850;SDS011;3464;42.728;23.296;2022-07-29T14:30:25;13.30;;;5.30;;
6850;SDS011;3464;42.728;23.296;2022-07-29T14:33:14;14.23;;;5.97;;
6850;SDS011;3464;42.728;23.296;2022-07-29T14:36:04;14.47;;;6.10;;
6850;SDS011;3464;42.728;23.296;2022-07-29T14:38:53;14.97;;;5.67;;
6850;SDS011;3464;42.728;23.296;2022-07-29T14:41:43;14.70;;;5.90;;
6850;SDS011;3464;42.728;23.296;2022-07-29T14:44:32;16.20;;;6.07;;
6850;SDS011;3464;42.728;23.296;2022-07-29T14:47:22;13.30;;;5.57;;
6850;SDS011;3464;42.728;23.296;2022-07-29T14:50:12;13.40;;;5.80;;
6850;SDS011;3464;42.728;23.296;2022-07-29T14:53:02;13.40;;;5.87;;
6850;SDS011;3464;42.728;23.296;2022-07-29T14:55:52;13.77;;;5.50;;
6850;SDS011;3464;42.728;23.296;2022-07-29T14:58:42;12.97;;;5.60;;
6850;SDS011;3464;42.728;23.296;2022-07-29T15:01:32;14.50;;;5.37;;
6850;SDS011;3464;42.728;23.296;2022-07-29T15:04:22;13.83;;;5.90;;
6850;SDS011;3464;42.728;23.296;2022-07-29T15:07:11;13.40;;;5.83;;
6850;SDS011;3464;42.728;23.296;2022-07-29T15:10:01;13.20;;;6.03;;
6850;SDS011;3464;42.728;23.296;2022-07-29T15:12:51;14.97;;;5.77;;
6850;SDS011;3464;42.728;23.296;2022-07-29T15:15:40;12.77;;;5.57;;
6850;SDS011;3464;42.728;23.296;2022-07-29T15:18:30;17.07;;;5.80;;
6850;SDS011;3464;42.728;23.296;2022-07-29T15:21:19;12.70;;;5.23;;
6850;SDS011;3464;42.728;23.296;2022-07-29T15:24:08;13.03;;;6.27;;
6850;SDS011;3464;42.728;23.296;2022-07-29T15:26:58;12.20;;;5.40;;
6850;SDS011;3464;42.728;23.296;2022-07-29T15:29:48;14.37;;;5.80;;
6850;SDS011;3464;42.728;23.296;2022-07-29T15:32:37;13.80;;;5.73;;
6850;SDS011;3464;42.728;23.296;2022-07-29T15:35:27;13.77;;;6.17;;
6850;SDS011;3464;42.728;23.296;2022-07-29T15:38:16;15.13;;;5.80;;
6850;SDS011;3464;42.728;23.296;2022-07-29T15:41:05;13.67;;;6.13;;
6850;SDS011;3464;42.728;23.296;2022-07-29T15:43:55;13.20;;;6.07;;
6850;SDS011;3464;42.728;23.296;2022-07-29T15:46:44;14.57;;;6.53;;
6850;SDS011;3464;42.728;23.296;2022-07-29T15:49:37;14.67;;;5.93;;
6850;SDS011;3464;42.728;23.296;2022-07-29T15:52:26;12.57;;;5.60;;
6850;SDS011;3464;42.728;23.296;2022-07-29T15:55:15;15.10;;;6.37;;
6850;SDS011;3464;42.728;23.296;2022-07-29T15:58:05;14.73;;;5.90;;
6850;SDS011;3464;42.728;23.296;2022-07-29T16:00:54;15.63;;;6.20;;
6850;SDS011;3464;42.728;23.296;2022-07-29T16:03:44;12.97;;;6.30;;
6850;SDS011;3464;42.728;23.296;2022-07-29T16:06:34;16.07;;;6.47;;
6850;SDS011;3464;42.728;23.296;2022-07-29T16:09:23;14.73;;;6.57;;
6850;SDS011;3464;42.728;23.296;2022-07-29T16:12:13;14.00;;;6.60;;
6850;SDS011;3464;42.728;23.296;2022-07-29T16:15:03;15.07;;;6.57;;
6850;SDS011;3464;42.728;23.296;2022-07-29T16:17:52;12.90;;;6.20;;
6850;SDS011;3464;42.728;23.296;2022-07-29T16:20:42;15.33;;;6.00;;
6850;SDS011;3464;42.728;23.296;2022-07-29T16:23:31;15.03;;;6.20;;
6850;SDS011;3464;42.728;23.296;2022-07-29T16:26:21;13.47;;;6.00;;
6850;SDS011;3464;42.728;23.296;2022-07-29T16:29:11;11.90;;;5.37;;
6850;SDS011;3464;42.728;23.296;2022-07-29T16:32:00;12.87;;;6.10;;
6850;SDS011;3464;42.728;23.296;2022-07-29T16:34:50;12.83;;;5.10;;
6850;SDS011;3464;42.728;23.296;2022-07-29T16:37:40;17.50;;;6.57;;
6850;SDS011;3464;42.728;23.296;2022-07-29T16:40:28;17.57;;;5.63;;
6850;SDS011;3464;42.728;23.296;2022-07-29T16:43:18;15.20;;;6.23;;
6850;SDS011;3464;42.728;23.296;2022-07-29T16:46:08;12.90;;;5.33;;
6850;SDS011;3464;42.728;23.296;2022-07-29T16:48:57;11.47;;;5.20;;
6850;SDS011;3464;42.728;23.296;2022-07-29T16:51:48;16.30;;;5.53;;
6850;SDS011;3464;42.728;23.296;2022-07-29T16:54:38;13.40;;;5.63;;
6850;SDS011;3464;42.728;23.296;2022-07-29T16:57:27;12.60;;;5.33;;
6850;SDS011;3464;42.728;23.296;2022-07-29T17:00:17;18.00;;;7.53;;
6850;SDS011;3464;42.728;23.296;2022-07-29T17:03:07;13.87;;;5.50;;
6850;SDS011;3464;42.728;23.296;2022-07-29T17:05:55;13.57;;;5.63;;
6850;SDS011;3464;42.728;23.296;2022-07-29T17:08:45;14.70;;;6.97;;
6850;SDS011;3464;42.728;23.296;2022-07-29T17:11:35;42.33;;;15.43;;
6850;SDS011;3464;42.728;23.296;2022-07-29T17:14:28;16.17;;;5.63;;
6850;SDS011;3464;42.728;23.296;2022-07-29T17:17:15;14.97;;;5.87;;
6850;SDS011;3464;42.728;23.296;2022-07-29T17:20:06;20.20;;;7.33;;
6850;SDS011;3464;42.728;23.296;2022-07-29T17:22:54;15.03;;;5.80;;
6850;SDS011;3464;42.728;23.296;2022-07-29T17:25:44;13.10;;;5.50;;
6850;SDS011;3464;42.728;23.296;2022-07-29T17:28:33;14.40;;;5.67;;
6850;SDS011;3464;42.728;23.296;2022-07-29T17:31:23;15.70;;;5.80;;
6850;SDS011;3464;42.728;23.296;2022-07-29T17:34:13;14.27;;;5.60;;